首页
METAR-TAF:

METAR-TAF

机场 :

特里布万国际机场

加德滿都, 尼泊尔

纬度: 27-42N, 经度: 085-22E, 海拔: 1337米

当前天气观测

该预报发布于32分钟前的01:30 UTC
风速3节,风向,在东北东转东南之间变化
温度 22°C
湿度 100%
气压 1011 hPa
能見度: 7000
少量云层高于1000英尺
少量云层高于2500英尺, 积雨云.
散云层高于3000英尺
多云层高于10000英尺

METAR: VNKT 170130Z 08003KT 040V120 7000 FEW010 FEW025CB SCT030 BKN100 22/22 Q1011 NOSIG CB TO SE S AND SW

时间: 07:47 (02:02 UTC)

预报

该预报发布于3小时和2分钟前的23:00 UTC
预报有效从17日的 00点(UTC)到 17日的 24点(UTC)
风速2节,风向多变
能見度: 5000
少量云层高于1000英尺
散云层高于3000英尺
多云层高于10000英尺
几率 40%
从 17日的 00点(UTC)到 17日的 04点(UTC)
风速3节,风向
能見度: 4000
少量云层高于2500英尺, 积雨云.
散云层高于3000英尺
多云层高于10000英尺
雷暴, 小雨
成为
从 17日的 04点(UTC)到 17日的 05点(UTC)
风速4节,风向东北
能見度: 6000
少量云层高于1500英尺
散云层高于3000英尺
多云层高于10000英尺
成为
从 17日的 07点(UTC)到 17日的 08点(UTC)
风速8节,风向南转西南
能見度: 7000
少量云层高于2000英尺
多云层高于10000英尺
几率 40%
从 17日的 06点(UTC)到 17日的 12点(UTC)
风速10节,风向西转西南
能見度: 4000
少量云层高于2500英尺, 积雨云.
雷暴, 小雨
成为
从 17日的 13点(UTC)到 17日的 14点(UTC)
风速6节,风向西转西北
能見度: 6000
少量云层高于1500英尺
散云层高于3000英尺
多云层高于10000英尺

TAF: VNKT 162300Z 1700/1724 VRB02KT 5000 -RA/BR FEW010 SCT030 BKN100 PROB40 1700/1704 08003KT 4000 -TSRA FEW025CB SCT030 BKN100 BECMG 1704/1705 05004KT 6000 FEW015 SCT030 BKN100 BECMG 1707/1708 20008KT 7000 FEW020 ST030 BKN100 PROB40 1706/1712 25010KT 4000 -TSRA FEW025CB BECMG 1713/1714 29006KT 6000 FEW015 SCT030 BKN100

超过4000个机场的气象观测和天气预报(METAR&TAF报告)。

可查询的气象台以黄色和红色小点在地图上表示。

将鼠标移到小点上方,可查看气象台名称。

然后点击查看天气观测和预报。

如需切换地图:点击带黑十字的绿色按钮放大地图;点击带横线的绿色按钮缩小地图;或者点击绿色箭头查看邻近地区的地图。


METAR-TAF: